sensor_id;sensor_type;location;lat;lon;timestamp;pressure;altitude;pressure_sealevel;temperature;humidity
21555;BME280;10938;44.794;-0.676;2022-11-20T00:00:48;101389.34;;;11.17;100.00
21555;BME280;10938;44.794;-0.676;2022-11-20T00:03:14;101398.06;;;11.19;100.00
21555;BME280;10938;44.794;-0.676;2022-11-20T00:05:39;101406.03;;;11.25;100.00
21555;BME280;10938;44.794;-0.676;2022-11-20T00:08:05;101402.81;;;11.38;100.00
21555;BME280;10938;44.794;-0.676;2022-11-20T00:10:30;101393.38;;;11.44;100.00
21555;BME280;10938;44.794;-0.676;2022-11-20T00:12:58;101398.72;;;11.51;100.00
21555;BME280;10938;44.794;-0.676;2022-11-20T00:15:24;101398.09;;;11.63;100.00
21555;BME280;10938;44.794;-0.676;2022-11-20T00:17:49;101401.59;;;11.65;100.00
21555;BME280;10938;44.794;-0.676;2022-11-20T00:20:15;101404.22;;;11.65;100.00
21555;BME280;10938;44.794;-0.676;2022-11-20T00:22:40;101408.44;;;11.57;100.00
21555;BME280;10938;44.794;-0.676;2022-11-20T00:25:06;101397.94;;;11.54;100.00
21555;BME280;10938;44.794;-0.676;2022-11-20T00:27:31;101396.03;;;11.47;100.00
21555;BME280;10938;44.794;-0.676;2022-11-20T00:29:56;101393.25;;;11.39;100.00
21555;BME280;10938;44.794;-0.676;2022-11-20T00:32:22;101394.25;;;11.46;100.00
21555;BME280;10938;44.794;-0.676;2022-11-20T00:34:47;101387.09;;;11.35;100.00
21555;BME280;10938;44.794;-0.676;2022-11-20T00:37:13;101387.75;;;11.25;100.00
21555;BME280;10938;44.794;-0.676;2022-11-20T00:39:38;101391.84;;;11.14;100.00
21555;BME280;10938;44.794;-0.676;2022-11-20T00:42:04;101389.03;;;11.04;100.00
21555;BME280;10938;44.794;-0.676;2022-11-20T00:44:29;101389.16;;;11.10;100.00
21555;BME280;10938;44.794;-0.676;2022-11-20T00:46:55;101395.34;;;11.15;100.00
21555;BME280;10938;44.794;-0.676;2022-11-20T00:49:20;101394.44;;;11.13;100.00
21555;BME280;10938;44.794;-0.676;2022-11-20T00:51:45;101387.47;;;11.12;100.00
21555;BME280;10938;44.794;-0.676;2022-11-20T00:54:11;101378.56;;;11.02;100.00
21555;BME280;10938;44.794;-0.676;2022-11-20T00:56:36;101381.00;;;10.95;100.00
21555;BME280;10938;44.794;-0.676;2022-11-20T00:59:02;101377.34;;;10.87;100.00
21555;BME280;10938;44.794;-0.676;2022-11-20T01:01:28;101370.16;;;10.76;100.00
21555;BME280;10938;44.794;-0.676;2022-11-20T01:03:56;101362.47;;;10.82;100.00
21555;BME280;10938;44.794;-0.676;2022-11-20T01:06:29;101372.06;;;10.83;100.00
21555;BME280;10938;44.794;-0.676;2022-11-20T01:08:57;101368.50;;;10.80;100.00
21555;BME280;10938;44.794;-0.676;2022-11-20T01:11:28;101371.00;;;10.75;100.00
21555;BME280;10938;44.794;-0.676;2022-11-20T01:13:55;101369.09;;;10.68;100.00
21555;BME280;10938;44.794;-0.676;2022-11-20T01:16:25;101370.56;;;10.56;100.00
21555;BME280;10938;44.794;-0.676;2022-11-20T01:18:53;101378.31;;;10.53;100.00
21555;BME280;10938;44.794;-0.676;2022-11-20T01:21:26;101378.22;;;10.50;100.00
21555;BME280;10938;44.794;-0.676;2022-11-20T01:23:53;101372.88;;;10.44;100.00
21555;BME280;10938;44.794;-0.676;2022-11-20T01:26:21;101371.31;;;10.52;100.00
21555;BME280;10938;44.794;-0.676;2022-11-20T01:28:47;101370.72;;;10.63;100.00
21555;BME280;10938;44.794;-0.676;2022-11-20T01:31:15;101373.34;;;10.63;100.00
21555;BME280;10938;44.794;-0.676;2022-11-20T01:33:41;101367.94;;;10.56;100.00
21555;BME280;10938;44.794;-0.676;2022-11-20T01:36:08;101363.50;;;10.52;100.00
21555;BME280;10938;44.794;-0.676;2022-11-20T01:38:34;101373.16;;;10.56;100.00
21555;BME280;10938;44.794;-0.676;2022-11-20T01:41:00;101373.28;;;10.62;100.00
21555;BME280;10938;44.794;-0.676;2022-11-20T01:43:25;101372.31;;;10.57;100.00
21555;BME280;10938;44.794;-0.676;2022-11-20T01:48:18;101372.97;;;10.84;100.00
21555;BME280;10938;44.794;-0.676;2022-11-20T01:50:44;101373.97;;;10.92;100.00
21555;BME280;10938;44.794;-0.676;2022-11-20T01:53:13;101369.78;;;10.99;100.00
21555;BME280;10938;44.794;-0.676;2022-11-20T01:55:44;101369.78;;;10.97;100.00
21555;BME280;10938;44.794;-0.676;2022-11-20T01:58:12;101367.13;;;10.96;100.00
21555;BME280;10938;44.794;-0.676;2022-11-20T02:06:29;101369.19;;;11.10;100.00
21555;BME280;10938;44.794;-0.676;2022-11-20T02:08:56;101370.91;;;11.11;100.00
21555;BME280;10938;44.794;-0.676;2022-11-20T02:11:22;101365.13;;;10.84;100.00
21555;BME280;10938;44.794;-0.676;2022-11-20T02:13:48;101363.34;;;10.83;100.00
21555;BME280;10938;44.794;-0.676;2022-11-20T02:16:31;101368.47;;;10.78;100.00
21555;BME280;10938;44.794;-0.676;2022-11-20T02:19:00;101357.84;;;10.71;100.00
21555;BME280;10938;44.794;-0.676;2022-11-20T02:21:47;101356.25;;;10.76;100.00
21555;BME280;10938;44.794;-0.676;2022-11-20T02:24:15;101346.50;;;10.67;100.00
21555;BME280;10938;44.794;-0.676;2022-11-20T02:29:21;101332.00;;;10.80;100.00
21555;BME280;10938;44.794;-0.676;2022-11-20T02:31:48;101321.06;;;10.57;100.00
21555;BME280;10938;44.794;-0.676;2022-11-20T02:34:14;101320.50;;;10.70;100.00
21555;BME280;10938;44.794;-0.676;2022-11-20T02:36:40;101320.69;;;10.79;100.00
21555;BME280;10938;44.794;-0.676;2022-11-20T02:39:07;101306.72;;;10.77;100.00
21555;BME280;10938;44.794;-0.676;2022-11-20T02:41:35;101303.06;;;10.69;100.00
21555;BME280;10938;44.794;-0.676;2022-11-20T02:44:01;101306.88;;;10.83;100.00
21555;BME280;10938;44.794;-0.676;2022-11-20T02:46:27;101295.91;;;10.59;100.00
21555;BME280;10938;44.794;-0.676;2022-11-20T02:48:52;101288.06;;;10.59;100.00
21555;BME280;10938;44.794;-0.676;2022-11-20T02:51:18;101282.38;;;10.77;100.00
21555;BME280;10938;44.794;-0.676;2022-11-20T02:53:43;101277.00;;;10.71;100.00
21555;BME280;10938;44.794;-0.676;2022-11-20T02:56:09;101270.25;;;10.79;100.00
21555;BME280;10938;44.794;-0.676;2022-11-20T02:58:34;101270.06;;;10.71;100.00
21555;BME280;10938;44.794;-0.676;2022-11-20T03:01:00;101261.75;;;10.89;100.00
21555;BME280;10938;44.794;-0.676;2022-11-20T03:03:25;101266.16;;;10.92;100.00
21555;BME280;10938;44.794;-0.676;2022-11-20T03:05:50;101252.50;;;11.05;100.00
21555;BME280;10938;44.794;-0.676;2022-11-20T03:08:16;101257.03;;;11.13;100.00
21555;BME280;10938;44.794;-0.676;2022-11-20T03:10:41;101253.28;;;10.99;100.00
21555;BME280;10938;44.794;-0.676;2022-11-20T03:13:07;101239.22;;;10.93;100.00
21555;BME280;10938;44.794;-0.676;2022-11-20T03:15:32;101243.03;;;11.10;100.00
21555;BME280;10938;44.794;-0.676;2022-11-20T03:17:58;101243.06;;;11.11;100.00
21555;BME280;10938;44.794;-0.676;2022-11-20T03:20:24;101225.84;;;11.21;100.00
21555;BME280;10938;44.794;-0.676;2022-11-20T03:22:49;101230.22;;;11.22;100.00
21555;BME280;10938;44.794;-0.676;2022-11-20T03:25:15;101231.47;;;11.42;100.00
21555;BME280;10938;44.794;-0.676;2022-11-20T03:27:40;101223.63;;;11.41;100.00
21555;BME280;10938;44.794;-0.676;2022-11-20T03:30:06;101232.41;;;11.46;100.00
21555;BME280;10938;44.794;-0.676;2022-11-20T03:32:32;101217.63;;;11.48;100.00
21555;BME280;10938;44.794;-0.676;2022-11-20T03:34:57;101228.16;;;11.52;100.00
21555;BME280;10938;44.794;-0.676;2022-11-20T03:37:23;101224.47;;;11.41;100.00
21555;BME280;10938;44.794;-0.676;2022-11-20T03:39:48;101227.22;;;11.49;100.00
21555;BME280;10938;44.794;-0.676;2022-11-20T03:42:13;101217.75;;;11.55;100.00
21555;BME280;10938;44.794;-0.676;2022-11-20T03:44:57;101216.13;;;11.60;100.00
21555;BME280;10938;44.794;-0.676;2022-11-20T03:47:23;101219.44;;;11.52;100.00
21555;BME280;10938;44.794;-0.676;2022-11-20T03:49:49;101229.28;;;11.68;100.00
21555;BME280;10938;44.794;-0.676;2022-11-20T03:52:15;101213.78;;;11.74;100.00
21555;BME280;10938;44.794;-0.676;2022-11-20T03:54:40;101225.09;;;11.26;100.00
21555;BME280;10938;44.794;-0.676;2022-11-20T03:57:05;101216.34;;;11.24;100.00
21555;BME280;10938;44.794;-0.676;2022-11-20T03:59:31;101210.66;;;11.47;100.00
21555;BME280;10938;44.794;-0.676;2022-11-20T04:01:56;101208.91;;;11.46;100.00
21555;BME280;10938;44.794;-0.676;2022-11-20T04:04:22;101188.63;;;11.31;100.00
21555;BME280;10938;44.794;-0.676;2022-11-20T04:06:47;101191.41;;;11.40;100.00
21555;BME280;10938;44.794;-0.676;2022-11-20T04:09:12;101183.59;;;11.42;100.00
21555;BME280;10938;44.794;-0.676;2022-11-20T04:11:39;101187.97;;;11.43;100.00
21555;BME280;10938;44.794;-0.676;2022-11-20T04:14:06;101174.91;;;11.43;100.00
21555;BME280;10938;44.794;-0.676;2022-11-20T04:16:34;101177.44;;;11.38;100.00
21555;BME280;10938;44.794;-0.676;2022-11-20T04:19:03;101178.22;;;11.32;100.00
21555;BME280;10938;44.794;-0.676;2022-11-20T04:21:29;101175.78;;;11.43;100.00
21555;BME280;10938;44.794;-0.676;2022-11-20T04:23:55;101178.38;;;11.42;100.00
21555;BME280;10938;44.794;-0.676;2022-11-20T04:26:22;101172.41;;;11.49;100.00
21555;BME280;10938;44.794;-0.676;2022-11-20T04:28:48;101155.56;;;11.30;100.00
21555;BME280;10938;44.794;-0.676;2022-11-20T04:31:15;101156.59;;;11.41;100.00
21555;BME280;10938;44.794;-0.676;2022-11-20T04:33:41;101162.69;;;11.42;100.00
21555;BME280;10938;44.794;-0.676;2022-11-20T04:36:11;101158.00;;;11.70;100.00
21555;BME280;10938;44.794;-0.676;2022-11-20T04:38:37;101165.03;;;11.76;100.00
21555;BME280;10938;44.794;-0.676;2022-11-20T04:41:06;101156.53;;;11.89;100.00
21555;BME280;10938;44.794;-0.676;2022-11-20T04:43:32;101154.97;;;12.02;100.00
21555;BME280;10938;44.794;-0.676;2022-11-20T04:45:59;101157.47;;;11.94;100.00
21555;BME280;10938;44.794;-0.676;2022-11-20T04:48:26;101155.97;;;12.10;100.00
21555;BME280;10938;44.794;-0.676;2022-11-20T04:50:52;101156.00;;;12.13;100.00
21555;BME280;10938;44.794;-0.676;2022-11-20T04:53:18;101155.06;;;12.09;100.00
21555;BME280;10938;44.794;-0.676;2022-11-20T04:55:44;101158.69;;;12.17;100.00
21555;BME280;10938;44.794;-0.676;2022-11-20T04:58:09;101151.50;;;12.04;100.00
21555;BME280;10938;44.794;-0.676;2022-11-20T05:00:35;101156.03;;;12.16;100.00
21555;BME280;10938;44.794;-0.676;2022-11-20T05:03:00;101159.63;;;12.24;100.00
21555;BME280;10938;44.794;-0.676;2022-11-20T05:05:26;101155.38;;;12.30;100.00
21555;BME280;10938;44.794;-0.676;2022-11-20T05:07:51;101167.63;;;12.36;100.00
21555;BME280;10938;44.794;-0.676;2022-11-20T05:10:16;101162.47;;;12.41;100.00
21555;BME280;10938;44.794;-0.676;2022-11-20T05:12:42;101172.13;;;12.48;100.00
21555;BME280;10938;44.794;-0.676;2022-11-20T05:15:08;101164.22;;;12.42;100.00
21555;BME280;10938;44.794;-0.676;2022-11-20T05:17:33;101156.94;;;12.19;100.00
21555;BME280;10938;44.794;-0.676;2022-11-20T05:19:59;101153.50;;;12.20;100.00
21555;BME280;10938;44.794;-0.676;2022-11-20T05:22:24;101157.75;;;12.15;100.00
21555;BME280;10938;44.794;-0.676;2022-11-20T05:24:49;101150.03;;;12.24;100.00
21555;BME280;10938;44.794;-0.676;2022-11-20T05:27:15;101152.00;;;12.41;100.00
21555;BME280;10938;44.794;-0.676;2022-11-20T05:29:40;101156.34;;;12.40;100.00
21555;BME280;10938;44.794;-0.676;2022-11-20T05:32:06;101160.75;;;12.43;100.00
21555;BME280;10938;44.794;-0.676;2022-11-20T05:34:34;101159.75;;;12.34;100.00
21555;BME280;10938;44.794;-0.676;2022-11-20T05:36:59;101154.72;;;12.50;100.00
21555;BME280;10938;44.794;-0.676;2022-11-20T05:39:24;101150.16;;;12.30;100.00
21555;BME280;10938;44.794;-0.676;2022-11-20T05:41:50;101145.63;;;12.19;100.00
21555;BME280;10938;44.794;-0.676;2022-11-20T05:44:35;101144.94;;;12.33;100.00
21555;BME280;10938;44.794;-0.676;2022-11-20T05:47:01;101143.31;;;12.43;100.00
21555;BME280;10938;44.794;-0.676;2022-11-20T05:49:26;101144.97;;;12.36;100.00
21555;BME280;10938;44.794;-0.676;2022-11-20T05:51:51;101144.00;;;12.28;100.00
21555;BME280;10938;44.794;-0.676;2022-11-20T05:54:17;101143.19;;;12.32;100.00
21555;BME280;10938;44.794;-0.676;2022-11-20T05:56:42;101146.78;;;12.41;100.00
21555;BME280;10938;44.794;-0.676;2022-11-20T05:59:08;101153.94;;;12.58;100.00
21555;BME280;10938;44.794;-0.676;2022-11-20T06:01:34;101159.00;;;12.43;100.00
21555;BME280;10938;44.794;-0.676;2022-11-20T06:04:01;101152.81;;;12.36;100.00
21555;BME280;10938;44.794;-0.676;2022-11-20T06:06:27;101151.91;;;12.34;100.00
21555;BME280;10938;44.794;-0.676;2022-11-20T06:08:52;101139.81;;;12.43;100.00
21555;BME280;10938;44.794;-0.676;2022-11-20T06:11:18;101139.72;;;12.33;100.00
21555;BME280;10938;44.794;-0.676;2022-11-20T06:13:44;101135.00;;;12.08;100.00
21555;BME280;10938;44.794;-0.676;2022-11-20T06:16:11;101131.16;;;11.82;100.00
21555;BME280;10938;44.794;-0.676;2022-11-20T06:18:37;101132.13;;;11.87;100.00
21555;BME280;10938;44.794;-0.676;2022-11-20T06:21:05;101136.63;;;11.97;100.00
21555;BME280;10938;44.794;-0.676;2022-11-20T06:23:32;101132.94;;;11.84;100.00
21555;BME280;10938;44.794;-0.676;2022-11-20T06:26:01;101128.63;;;11.88;100.00
21555;BME280;10938;44.794;-0.676;2022-11-20T06:28:27;101124.16;;;11.79;100.00
21555;BME280;10938;44.794;-0.676;2022-11-20T06:30:53;101126.59;;;11.69;100.00
21555;BME280;10938;44.794;-0.676;2022-11-20T06:33:18;101123.13;;;11.70;100.00
21555;BME280;10938;44.794;-0.676;2022-11-20T06:35:43;101120.84;;;11.90;100.00
21555;BME280;10938;44.794;-0.676;2022-11-20T06:38:09;101128.94;;;12.09;100.00
21555;BME280;10938;44.794;-0.676;2022-11-20T06:40:34;101125.47;;;12.12;100.00
21555;BME280;10938;44.794;-0.676;2022-11-20T06:43:00;101129.00;;;12.15;100.00
21555;BME280;10938;44.794;-0.676;2022-11-20T06:45:25;101124.75;;;12.20;100.00
21555;BME280;10938;44.794;-0.676;2022-11-20T06:47:50;101121.41;;;12.33;100.00
21555;BME280;10938;44.794;-0.676;2022-11-20T06:50:16;101129.47;;;12.50;100.00
21555;BME280;10938;44.794;-0.676;2022-11-20T06:52:41;101128.25;;;12.22;100.00
21555;BME280;10938;44.794;-0.676;2022-11-20T06:55:07;101123.13;;;12.30;100.00
21555;BME280;10938;44.794;-0.676;2022-11-20T06:57:33;101122.28;;;12.32;100.00
21555;BME280;10938;44.794;-0.676;2022-11-20T06:59:58;101125.22;;;12.61;100.00
21555;BME280;10938;44.794;-0.676;2022-11-20T07:02:23;101124.22;;;12.52;100.00
21555;BME280;10938;44.794;-0.676;2022-11-20T07:04:49;101123.47;;;12.62;100.00
21555;BME280;10938;44.794;-0.676;2022-11-20T07:07:14;101118.38;;;12.71;100.00
21555;BME280;10938;44.794;-0.676;2022-11-20T07:09:40;101127.06;;;12.70;100.00
21555;BME280;10938;44.794;-0.676;2022-11-20T07:12:05;101122.56;;;12.57;100.00
21555;BME280;10938;44.794;-0.676;2022-11-20T07:14:31;101103.91;;;12.28;100.00
21555;BME280;10938;44.794;-0.676;2022-11-20T07:16:56;101101.00;;;12.05;100.00
21555;BME280;10938;44.794;-0.676;2022-11-20T07:19:22;101110.97;;;12.33;100.00
21555;BME280;10938;44.794;-0.676;2022-11-20T07:21:47;101109.56;;;12.66;100.00
21555;BME280;10938;44.794;-0.676;2022-11-20T07:24:12;101122.75;;;12.75;100.00
21555;BME280;10938;44.794;-0.676;2022-11-20T07:26:38;101125.44;;;12.82;100.00
21555;BME280;10938;44.794;-0.676;2022-11-20T07:29:03;101126.25;;;12.75;100.00
21555;BME280;10938;44.794;-0.676;2022-11-20T07:31:29;101127.19;;;12.80;100.00
21555;BME280;10938;44.794;-0.676;2022-11-20T07:33:54;101128.91;;;12.78;100.00
21555;BME280;10938;44.794;-0.676;2022-11-20T07:36:19;101133.19;;;12.72;100.00
21555;BME280;10938;44.794;-0.676;2022-11-20T07:38:45;101130.78;;;12.91;100.00
21555;BME280;10938;44.794;-0.676;2022-11-20T07:41:10;101145.88;;;13.15;100.00
21555;BME280;10938;44.794;-0.676;2022-11-20T07:43:36;101144.22;;;13.23;100.00
21555;BME280;10938;44.794;-0.676;2022-11-20T07:46:01;101138.34;;;13.53;100.00
21555;BME280;10938;44.794;-0.676;2022-11-20T07:48:26;101147.25;;;13.78;100.00
21555;BME280;10938;44.794;-0.676;2022-11-20T07:50:56;101162.94;;;13.70;100.00
21555;BME280;10938;44.794;-0.676;2022-11-20T07:53:22;101161.28;;;13.83;100.00
21555;BME280;10938;44.794;-0.676;2022-11-20T07:55:48;101176.16;;;13.84;100.00
21555;BME280;10938;44.794;-0.676;2022-11-20T07:58:13;101176.16;;;13.84;100.00
21555;BME280;10938;44.794;-0.676;2022-11-20T08:00:40;101190.25;;;14.06;100.00
21555;BME280;10938;44.794;-0.676;2022-11-20T08:03:06;101188.53;;;14.09;100.00
21555;BME280;10938;44.794;-0.676;2022-11-20T08:05:32;101182.53;;;14.27;100.00
21555;BME280;10938;44.794;-0.676;2022-11-20T08:07:57;101178.00;;;14.03;100.00
21555;BME280;10938;44.794;-0.676;2022-11-20T08:10:23;101161.31;;;13.89;100.00
21555;BME280;10938;44.794;-0.676;2022-11-20T08:12:50;101142.91;;;13.77;100.00
21555;BME280;10938;44.794;-0.676;2022-11-20T08:15:35;101139.34;;;13.69;100.00
21555;BME280;10938;44.794;-0.676;2022-11-20T08:18:06;101163.03;;;13.88;100.00
21555;BME280;10938;44.794;-0.676;2022-11-20T08:20:32;101164.00;;;14.00;100.00
21555;BME280;10938;44.794;-0.676;2022-11-20T08:22:59;101164.91;;;14.08;100.00
21555;BME280;10938;44.794;-0.676;2022-11-20T08:25:26;101168.31;;;13.94;100.00
21555;BME280;10938;44.794;-0.676;2022-11-20T08:27:52;101149.16;;;14.03;100.00
21555;BME280;10938;44.794;-0.676;2022-11-20T08:30:17;101142.00;;;13.76;100.00
21555;BME280;10938;44.794;-0.676;2022-11-20T08:32:43;101141.31;;;14.03;100.00
21555;BME280;10938;44.794;-0.676;2022-11-20T08:35:08;101147.41;;;14.02;100.00
21555;BME280;10938;44.794;-0.676;2022-11-20T08:37:33;101151.81;;;14.09;100.00
21555;BME280;10938;44.794;-0.676;2022-11-20T08:39:59;101143.06;;;14.04;100.00
21555;BME280;10938;44.794;-0.676;2022-11-20T08:42:24;101140.38;;;13.93;100.00
21555;BME280;10938;44.794;-0.676;2022-11-20T08:44:50;101129.00;;;13.93;100.00
21555;BME280;10938;44.794;-0.676;2022-11-20T08:47:15;101132.41;;;13.77;100.00
21555;BME280;10938;44.794;-0.676;2022-11-20T08:49:41;101127.28;;;13.97;100.00
21555;BME280;10938;44.794;-0.676;2022-11-20T08:52:06;101122.06;;;14.01;100.00
21555;BME280;10938;44.794;-0.676;2022-11-20T08:54:31;101116.84;;;14.03;100.00
21555;BME280;10938;44.794;-0.676;2022-11-20T08:56:57;101108.09;;;14.02;100.00
21555;BME280;10938;44.794;-0.676;2022-11-20T08:59:22;101106.31;;;14.01;100.00
21555;BME280;10938;44.794;-0.676;2022-11-20T09:01:48;101095.03;;;14.13;100.00
21555;BME280;10938;44.794;-0.676;2022-11-20T09:04:13;101095.00;;;14.01;100.00
21555;BME280;10938;44.794;-0.676;2022-11-20T09:06:39;101082.00;;;14.31;100.00
21555;BME280;10938;44.794;-0.676;2022-11-20T09:09:05;101092.56;;;14.46;100.00
21555;BME280;10938;44.794;-0.676;2022-11-20T09:11:31;101086.50;;;14.68;100.00
21555;BME280;10938;44.794;-0.676;2022-11-20T09:13:57;101092.69;;;14.96;100.00
21555;BME280;10938;44.794;-0.676;2022-11-20T09:16:22;101102.31;;;15.15;100.00
21555;BME280;10938;44.794;-0.676;2022-11-20T09:18:49;101112.81;;;15.06;100.00
21555;BME280;10938;44.794;-0.676;2022-11-20T09:21:15;101106.66;;;14.92;100.00
21555;BME280;10938;44.794;-0.676;2022-11-20T09:23:40;101109.34;;;15.30;100.00
21555;BME280;10938;44.794;-0.676;2022-11-20T09:26:11;101099.69;;;15.03;100.00
21555;BME280;10938;44.794;-0.676;2022-11-20T09:28:37;101088.28;;;15.01;100.00
21555;BME280;10938;44.794;-0.676;2022-11-20T09:31:06;101087.44;;;15.11;100.00
21555;BME280;10938;44.794;-0.676;2022-11-20T09:33:32;101076.06;;;15.23;100.00
21555;BME280;10938;44.794;-0.676;2022-11-20T09:35:57;101087.44;;;15.29;100.00
21555;BME280;10938;44.794;-0.676;2022-11-20T09:38:22;101082.19;;;14.98;100.00
21555;BME280;10938;44.794;-0.676;2022-11-20T09:41:02;101078.66;;;14.95;100.00
21555;BME280;10938;44.794;-0.676;2022-11-20T09:46:19;101087.41;;;15.41;100.00
21555;BME280;10938;44.794;-0.676;2022-11-20T09:49:16;101076.94;;;15.02;100.00
21555;BME280;10938;44.794;-0.676;2022-11-20T09:54:19;101083.94;;;15.49;100.00
21555;BME280;10938;44.794;-0.676;2022-11-20T09:56:49;101088.28;;;15.75;100.00
21555;BME280;10938;44.794;-0.676;2022-11-20T09:59:28;101099.66;;;15.85;100.00
21555;BME280;10938;44.794;-0.676;2022-11-20T10:01:55;101097.88;;;15.93;100.00
21555;BME280;10938;44.794;-0.676;2022-11-20T10:04:22;101101.41;;;15.83;100.00
21555;BME280;10938;44.794;-0.676;2022-11-20T10:06:55;101096.13;;;15.89;100.00
21555;BME280;10938;44.794;-0.676;2022-11-20T10:09:34;101091.81;;;15.44;100.00
21555;BME280;10938;44.794;-0.676;2022-11-20T10:12:06;101102.28;;;15.91;100.00
21555;BME280;10938;44.794;-0.676;2022-11-20T10:26:44;101164.00;;;17.18;100.00
21555;BME280;10938;44.794;-0.676;2022-11-20T10:29:34;101170.16;;;17.17;100.00
21555;BME280;10938;44.794;-0.676;2022-11-20T10:32:20;101182.72;;;16.66;100.00
21555;BME280;10938;44.794;-0.676;2022-11-20T10:34:59;101176.63;;;16.54;100.00
21555;BME280;10938;44.794;-0.676;2022-11-20T10:37:27;101175.75;;;16.48;100.00
21555;BME280;10938;44.794;-0.676;2022-11-20T10:40:01;101167.88;;;16.58;100.00
21555;BME280;10938;44.794;-0.676;2022-11-20T10:42:54;101159.13;;;16.39;100.00
21555;BME280;10938;44.794;-0.676;2022-11-20T10:47:51;101132.91;;;16.13;100.00
21555;BME280;10938;44.794;-0.676;2022-11-20T10:50:21;101107.34;;;16.44;100.00
21555;BME280;10938;44.794;-0.676;2022-11-20T10:52:58;101098.44;;;16.77;100.00
21555;BME280;10938;44.794;-0.676;2022-11-20T10:58:16;101114.88;;;17.09;100.00
21555;BME280;10938;44.794;-0.676;2022-11-20T11:00:47;101118.22;;;17.32;100.00
21555;BME280;10938;44.794;-0.676;2022-11-20T11:03:39;101115.22;;;17.78;100.00
21555;BME280;10938;44.794;-0.676;2022-11-20T11:06:46;101117.16;;;18.35;100.00
21555;BME280;10938;44.794;-0.676;2022-11-20T11:09:15;101140.44;;;18.76;100.00
21555;BME280;10938;44.794;-0.676;2022-11-20T11:11:41;101159.94;;;19.27;100.00
21555;BME280;10938;44.794;-0.676;2022-11-20T11:14:11;101188.59;;;19.58;100.00
21555;BME280;10938;44.794;-0.676;2022-11-20T11:16:55;101197.94;;;19.77;100.00
21555;BME280;10938;44.794;-0.676;2022-11-20T11:19:21;101199.25;;;20.02;100.00
21555;BME280;10938;44.794;-0.676;2022-11-20T11:21:49;101202.31;;;20.30;100.00
21555;BME280;10938;44.794;-0.676;2022-11-20T11:24:26;101209.06;;;20.46;100.00
21555;BME280;10938;44.794;-0.676;2022-11-20T11:26:56;101209.84;;;20.51;100.00
21555;BME280;10938;44.794;-0.676;2022-11-20T11:29:22;101212.63;;;20.43;100.00
21555;BME280;10938;44.794;-0.676;2022-11-20T11:31:48;101220.59;;;20.42;100.00
21555;BME280;10938;44.794;-0.676;2022-11-20T11:34:16;101224.00;;;20.50;100.00
21555;BME280;10938;44.794;-0.676;2022-11-20T11:36:47;101209.03;;;20.47;100.00
21555;BME280;10938;44.794;-0.676;2022-11-20T11:39:16;101200.97;;;20.53;100.00
21555;BME280;10938;44.794;-0.676;2022-11-20T11:41:42;101205.09;;;20.67;100.00
21555;BME280;10938;44.794;-0.676;2022-11-20T11:44:21;101208.13;;;20.90;100.00
21555;BME280;10938;44.794;-0.676;2022-11-20T11:47:30;101208.47;;;21.16;100.00
21555;BME280;10938;44.794;-0.676;2022-11-20T11:52:42;101226.88;;;21.22;100.00
21555;BME280;10938;44.794;-0.676;2022-11-20T11:55:14;101233.00;;;21.26;100.00
21555;BME280;10938;44.794;-0.676;2022-11-20T12:00:15;101222.38;;;21.26;100.00
21555;BME280;10938;44.794;-0.676;2022-11-20T12:10:50;101224.22;;;21.22;100.00
21555;BME280;10938;44.794;-0.676;2022-11-20T12:15:56;101221.88;;;20.67;100.00
21555;BME280;10938;44.794;-0.676;2022-11-20T12:18:22;101225.06;;;20.84;100.00
21555;BME280;10938;44.794;-0.676;2022-11-20T12:26:10;101227.09;;;20.24;100.00
21555;BME280;10938;44.794;-0.676;2022-11-20T12:28:44;101229.16;;;20.56;100.00
21555;BME280;10938;44.794;-0.676;2022-11-20T12:31:52;101236.28;;;20.97;100.00
21555;BME280;10938;44.794;-0.676;2022-11-20T12:39:49;101234.78;;;21.25;100.00
21555;BME280;10938;44.794;-0.676;2022-11-20T12:42:36;101241.34;;;21.08;100.00
21555;BME280;10938;44.794;-0.676;2022-11-20T13:01:57;101266.66;;;21.99;100.00
21555;BME280;10938;44.794;-0.676;2022-11-20T13:07:16;101259.88;;;21.49;100.00
21555;BME280;10938;44.794;-0.676;2022-11-20T13:09:47;101255.84;;;20.90;100.00
21555;BME280;10938;44.794;-0.676;2022-11-20T13:20:09;101257.16;;;20.69;99.17
21555;BME280;10938;44.794;-0.676;2022-11-20T13:22:52;101269.47;;;20.24;100.00
21555;BME280;10938;44.794;-0.676;2022-11-20T13:27:49;101272.09;;;19.74;100.00
21555;BME280;10938;44.794;-0.676;2022-11-20T13:30:18;101268.44;;;19.18;100.00
21555;BME280;10938;44.794;-0.676;2022-11-20T13:33:06;101264.22;;;19.71;100.00
21555;BME280;10938;44.794;-0.676;2022-11-20T13:35:35;101264.81;;;19.88;100.00
21555;BME280;10938;44.794;-0.676;2022-11-20T13:38:12;101259.69;;;19.76;100.00
21555;BME280;10938;44.794;-0.676;2022-11-20T13:40:59;101270.09;;;20.38;100.00
21555;BME280;10938;44.794;-0.676;2022-11-20T13:43:44;101269.97;;;20.47;100.00
21555;BME280;10938;44.794;-0.676;2022-11-20T13:46:12;101281.47;;;20.45;100.00
21555;BME280;10938;44.794;-0.676;2022-11-20T13:48:43;101294.69;;;20.48;100.00
21555;BME280;10938;44.794;-0.676;2022-11-20T13:51:33;101297.28;;;20.49;100.00
21555;BME280;10938;44.794;-0.676;2022-11-20T14:02:26;101279.41;;;20.61;100.00
21555;BME280;10938;44.794;-0.676;2022-11-20T14:04:54;101289.41;;;20.46;100.00
21555;BME280;10938;44.794;-0.676;2022-11-20T14:07:24;101299.06;;;20.49;100.00
21555;BME280;10938;44.794;-0.676;2022-11-20T14:09:54;101314.00;;;20.53;100.00
21555;BME280;10938;44.794;-0.676;2022-11-20T14:12:31;101310.66;;;20.43;100.00
21555;BME280;10938;44.794;-0.676;2022-11-20T14:14:58;101297.00;;;19.61;100.00